Time;durP1;ratioP1;P1;durP2;ratioP2;P2;SDS_P1;SDS_P2;PMS_P1;PMS_P2;Temp;Humidity;BMP_temperature;BMP_pressure;BME280_temperature;BME280_humidity;BME280_pressure;Samples;Min_cycle;Max_cycle;Signal;HPM_P1;HPM_P2
2022/11/19 00:00:55;;;;;;;9.38;5.07;;;;;;;;;;5054285;28;20051;-82
2022/11/19 00:03:22;;;;;;;13.75;7.07;;;;;;;;;;5037228;28;20460;-81
2022/11/19 00:05:49;;;;;;;16.83;9.07;;;;;;;;;;5054079;28;20371;-82
2022/11/19 00:08:17;;;;;;;16.65;9.02;;;;;;;;;;5053260;28;20490;-82
2022/11/19 00:10:43;;;;;;;18.02;9.20;;;;;;;;;;5053965;28;20098;-81
2022/11/19 00:13:10;;;;;;;16.60;9.82;;;;;;;;;;5053767;28;20494;-81
2022/11/19 00:15:36;;;;;;;11.20;6.28;;;;;;;;;;5037079;28;20051;-83
2022/11/19 00:18:03;;;;;;;16.33;8.75;;;;;;;;;;5054788;28;20036;-81
2022/11/19 00:20:29;;;;;;;13.02;6.57;;;;;;;;;;5047922;28;20037;-81
2022/11/19 00:22:56;;;;;;;16.38;9.50;;;;;;;;;;5040328;28;20059;-81
2022/11/19 00:25:23;;;;;;;16.23;9.00;;;;;;;;;;5039395;28;20564;-80
2022/11/19 00:27:49;;;;;;;14.80;9.05;;;;;;;;;;5053371;28;20037;-81
2022/11/19 00:30:16;;;;;;;15.95;9.27;;;;;;;;;;5054080;28;20037;-81
2022/11/19 00:32:42;;;;;;;13.85;7.47;;;;;;;;;;5045382;28;20053;-82
2022/11/19 00:35:08;;;;;;;12.48;6.07;;;;;;;;;;5033532;28;20052;-79
2022/11/19 00:37:34;;;;;;;14.23;8.20;;;;;;;;;;5053778;28;20049;-81
2022/11/19 00:40:00;;;;;;;14.27;8.27;;;;;;;;;;5054561;28;20041;-80
2022/11/19 00:42:26;;;;;;;12.05;7.00;;;;;;;;;;5036640;28;20040;-83
2022/11/19 00:44:53;;;;;;;10.13;5.45;;;;;;;;;;5036745;28;20044;-81
2022/11/19 00:47:19;;;;;;;16.13;8.73;;;;;;;;;;5036685;28;20092;-80
2022/11/19 00:49:45;;;;;;;12.95;7.03;;;;;;;;;;5054400;28;20045;-80
2022/11/19 00:52:11;;;;;;;13.05;7.50;;;;;;;;;;5036784;28;20041;-80
2022/11/19 00:54:37;;;;;;;9.40;4.45;;;;;;;;;;5053115;28;20056;-80
2022/11/19 00:57:03;;;;;;;13.35;6.90;;;;;;;;;;5053173;28;20186;-78
2022/11/19 00:59:29;;;;;;;14.88;8.02;;;;;;;;;;5052871;28;20120;-77
2022/11/19 01:01:55;;;;;;;14.10;7.32;;;;;;;;;;5053015;28;20033;-77
2022/11/19 01:04:21;;;;;;;14.27;6.95;;;;;;;;;;5052932;28;20091;-77
2022/11/19 01:06:47;;;;;;;12.18;7.18;;;;;;;;;;5052654;28;20048;-77
2022/11/19 01:09:13;;;;;;;13.60;7.25;;;;;;;;;;5052694;28;20041;-80
2022/11/19 01:11:39;;;;;;;14.95;7.30;;;;;;;;;;5036182;28;20040;-77
2022/11/19 01:14:06;;;;;;;11.43;6.18;;;;;;;;;;5052306;28;20069;-76
2022/11/19 01:16:34;;;;;;;13.18;7.35;;;;;;;;;;5053701;28;20048;-76
2022/11/19 01:19:00;;;;;;;8.65;3.95;;;;;;;;;;5035933;28;20037;-77
2022/11/19 01:21:28;;;;;;;13.90;7.55;;;;;;;;;;5053753;28;20072;-77
2022/11/19 01:23:54;;;;;;;11.88;6.65;;;;;;;;;;5035812;28;20049;-76
2022/11/19 01:26:20;;;;;;;13.93;6.75;;;;;;;;;;5052266;28;20037;-76
2022/11/19 01:28:46;;;;;;;7.13;3.67;;;;;;;;;;5052245;28;20039;-77
2022/11/19 01:31:17;;;;;;;6.38;3.40;;;;;;;;;;5025879;28;20038;-78
2022/11/19 01:33:44;;;;;;;7.13;3.75;;;;;;;;;;5049263;28;20481;-77
2022/11/19 01:36:12;;;;;;;10.57;5.13;;;;;;;;;;5052337;28;20481;-77
2022/11/19 01:38:38;;;;;;;12.43;6.45;;;;;;;;;;5053499;28;20044;-76
2022/11/19 01:41:05;;;;;;;10.38;5.22;;;;;;;;;;5053370;28;20041;-81
2022/11/19 01:43:45;;;;;;;9.25;5.30;;;;;;;;;;5052538;28;20172;-81
2022/11/19 01:46:12;;;;;;;9.85;4.68;;;;;;;;;;5040697;28;20045;-76
2022/11/19 01:48:40;;;;;;;8.88;5.22;;;;;;;;;;5052192;28;20420;-81
2022/11/19 01:51:13;;;;;;;8.75;4.93;;;;;;;;;;5053054;28;20033;-81
2022/11/19 01:53:39;;;;;;;7.20;3.47;;;;;;;;;;5035733;28;20045;-76
2022/11/19 01:56:07;;;;;;;10.38;5.50;;;;;;;;;;5051748;28;20076;-77
2022/11/19 01:58:35;;;;;;;6.72;3.00;;;;;;;;;;5051975;28;20049;-78
2022/11/19 02:01:01;;;;;;;6.72;3.35;;;;;;;;;;5021831;28;20045;-78
2022/11/19 02:03:31;;;;;;;7.28;3.78;;;;;;;;;;5051180;28;20037;-77
2022/11/19 02:05:58;;;;;;;6.78;3.22;;;;;;;;;;5051625;28;20041;-77
2022/11/19 02:08:33;;;;;;;7.30;3.72;;;;;;;;;;5051554;28;20033;-78
2022/11/19 02:11:27;;;;;;;4.38;2.42;;;;;;;;;;5053216;28;20049;-81
2022/11/19 02:14:11;;;;;;;6.68;3.85;;;;;;;;;;5053055;28;20445;-77
2022/11/19 02:16:37;;;;;;;6.90;3.35;;;;;;;;;;5051063;28;20037;-77
2022/11/19 02:19:18;;;;;;;8.35;4.30;;;;;;;;;;5039534;28;20442;-77
2022/11/19 02:22:03;;;;;;;9.02;4.47;;;;;;;;;;5051175;28;20048;-77
2022/11/19 02:25:08;;;;;;;4.45;2.50;;;;;;;;;;5052721;28;20410;-82
2022/11/19 02:27:49;;;;;;;8.07;3.83;;;;;;;;;;4978394;28;20076;-82
2022/11/19 02:30:16;;;;;;;4.25;1.92;;;;;;;;;;5027446;28;20522;-82
2022/11/19 02:33:01;;;;;;;6.38;3.42;;;;;;;;;;5059378;28;20558;-82
2022/11/19 02:35:27;;;;;;;5.57;2.95;;;;;;;;;;5051727;28;20068;-82
2022/11/19 02:38:02;;;;;;;7.55;3.65;;;;;;;;;;5051207;28;20045;-82
2022/11/19 02:40:49;;;;;;;6.30;3.38;;;;;;;;;;5050512;28;20052;-81
2022/11/19 02:43:18;;;;;;;5.32;3.40;;;;;;;;;;5051068;28;20041;-80
2022/11/19 02:45:47;;;;;;;6.57;3.10;;;;;;;;;;5036827;28;20036;-83
2022/11/19 02:48:16;;;;;;;5.93;3.13;;;;;;;;;;5052088;28;20041;-82
2022/11/19 02:50:44;;;;;;;6.20;3.00;;;;;;;;;;5051029;28;20520;-79
2022/11/19 02:53:10;;;;;;;6.25;3.83;;;;;;;;;;5050543;28;20052;-76
2022/11/19 02:55:37;;;;;;;7.28;3.30;;;;;;;;;;5051416;28;20076;-77
2022/11/19 02:58:03;;;;;;;7.00;3.75;;;;;;;;;;5052152;28;20486;-76
2022/11/19 03:06:09;;;;;;;4.75;2.35;;;;;;;;;;5051158;28;20049;-78
2022/11/19 03:08:35;;;;;;;5.47;2.88;;;;;;;;;;5050605;28;20084;-77
2022/11/19 03:11:04;;;;;;;8.27;3.95;;;;;;;;;;5052310;28;20041;-77
2022/11/19 03:16:41;;;;;;;4.68;2.47;;;;;;;;;;5050310;28;20072;-78
2022/11/19 03:19:22;;;;;;;7.10;3.80;;;;;;;;;;5051134;28;20450;-82
2022/11/19 03:21:54;;;;;;;7.07;3.83;;;;;;;;;;5050368;28;20124;-83
2022/11/19 03:24:23;;;;;;;6.80;3.85;;;;;;;;;;5051189;28;20045;-82
2022/11/19 03:26:58;;;;;;;6.20;2.63;;;;;;;;;;5051624;28;20075;-83
2022/11/19 03:29:26;;;;;;;5.35;2.63;;;;;;;;;;5051503;28;20041;-83
2022/11/19 03:31:57;;;;;;;6.30;3.10;;;;;;;;;;5050924;28;20048;-83
2022/11/19 03:34:25;;;;;;;6.20;3.50;;;;;;;;;;5050081;28;20041;-83
2022/11/19 03:36:53;;;;;;;4.80;2.63;;;;;;;;;;5050357;28;20045;-82
2022/11/19 03:39:20;;;;;;;7.13;3.85;;;;;;;;;;5050424;28;20490;-82
2022/11/19 03:41:47;;;;;;;7.88;3.40;;;;;;;;;;5020035;28;20505;-81
2022/11/19 03:44:24;;;;;;;4.63;2.20;;;;;;;;;;5052026;28;20063;-81
2022/11/19 03:46:49;;;;;;;;;;;;;;;;;;5054384;28;20049;-82
2022/11/19 03:49:17;;;;;;;5.88;2.78;;;;;;;;;;5053957;28;19923;-80
2022/11/19 03:51:47;;;;;;;7.28;3.85;;;;;;;;;;5054237;28;20045;-81
2022/11/19 03:54:14;;;;;;;7.20;3.53;;;;;;;;;;5053969;28;20041;-83
2022/11/19 03:56:41;;;;;;;7.18;3.97;;;;;;;;;;5054330;28;20474;-82
2022/11/19 03:59:09;;;;;;;7.97;3.85;;;;;;;;;;5037449;28;20119;-82
2022/11/19 04:01:35;;;;;;;8.85;3.78;;;;;;;;;;5037212;28;20135;-77
2022/11/19 04:06:46;;;;;;;6.32;3.35;;;;;;;;;;5053778;28;20045;-78
2022/11/19 04:09:12;;;;;;;6.32;3.13;;;;;;;;;;5053965;28;20055;-81
2022/11/19 04:11:38;;;;;;;5.25;2.53;;;;;;;;;;5037405;28;20474;-80
2022/11/19 04:14:04;;;;;;;6.57;3.25;;;;;;;;;;5053829;28;20474;-75
2022/11/19 04:16:30;;;;;;;7.45;3.67;;;;;;;;;;5039795;28;20386;-74
2022/11/19 04:18:56;;;;;;;7.78;3.85;;;;;;;;;;5021003;28;20064;-74
2022/11/19 04:21:22;;;;;;;4.63;2.65;;;;;;;;;;5054654;28;20037;-77
2022/11/19 04:23:49;;;;;;;4.20;2.33;;;;;;;;;;5053370;28;20057;-76
2022/11/19 04:26:15;;;;;;;6.15;3.55;;;;;;;;;;5039321;28;20068;-80
2022/11/19 04:28:41;;;;;;;6.45;3.58;;;;;;;;;;5053352;28;20041;-79
2022/11/19 04:31:07;;;;;;;8.50;4.10;;;;;;;;;;5053635;28;20103;-73
2022/11/19 04:33:33;;;;;;;7.03;3.40;;;;;;;;;;5052939;28;20390;-76
2022/11/19 04:35:59;;;;;;;6.95;3.70;;;;;;;;;;5025379;28;20481;-74
2022/11/19 04:38:25;;;;;;;4.85;2.28;;;;;;;;;;5050869;28;20041;-74
2022/11/19 04:40:51;;;;;;;6.88;2.78;;;;;;;;;;5052954;28;20075;-75
2022/11/19 04:43:17;;;;;;;4.45;2.15;;;;;;;;;;5036367;28;20052;-74
2022/11/19 04:45:43;;;;;;;8.05;3.58;;;;;;;;;;5052788;28;20076;-80
2022/11/19 04:48:09;;;;;;;9.50;3.58;;;;;;;;;;5053335;28;20478;-78
2022/11/19 04:50:35;;;;;;;5.88;3.08;;;;;;;;;;5052641;28;20041;-79
2022/11/19 04:53:01;;;;;;;7.63;3.85;;;;;;;;;;5054194;28;20124;-73
2022/11/19 04:55:27;;;;;;;6.05;3.15;;;;;;;;;;5052021;28;20041;-73
2022/11/19 04:57:53;;;;;;;6.28;2.95;;;;;;;;;;5053333;28;20492;-74
2022/11/19 05:00:19;;;;;;;7.65;4.05;;;;;;;;;;5054012;28;20440;-74
2022/11/19 05:02:45;;;;;;;7.93;4.07;;;;;;;;;;5044499;28;20486;-79
2022/11/19 05:05:11;;;;;;;7.90;3.70;;;;;;;;;;5051975;28;20063;-81
2022/11/19 05:07:37;;;;;;;4.85;2.60;;;;;;;;;;5052172;28;20048;-74
2022/11/19 05:10:04;;;;;;;6.30;3.38;;;;;;;;;;5052552;28;20041;-74
2022/11/19 05:12:30;;;;;;;6.97;3.45;;;;;;;;;;5052164;28;20045;-74
2022/11/19 05:14:56;;;;;;;6.25;3.50;;;;;;;;;;5053780;28;20120;-74
2022/11/19 05:17:22;;;;;;;7.80;4.07;;;;;;;;;;5035746;28;20048;-74
2022/11/19 05:19:48;;;;;;;6.05;2.92;;;;;;;;;;5052217;28;20041;-74
2022/11/19 05:22:14;;;;;;;7.82;3.70;;;;;;;;;;5051615;28;20041;-74
2022/11/19 05:24:40;;;;;;;6.30;3.60;;;;;;;;;;5038274;28;20061;-74
2022/11/19 05:27:06;;;;;;;6.55;3.72;;;;;;;;;;5052175;28;20080;-75
2022/11/19 05:29:32;;;;;;;6.93;3.75;;;;;;;;;;5067489;28;20029;-76
2022/11/19 05:31:59;;;;;;;8.00;3.92;;;;;;;;;;5072445;28;20536;-78
2022/11/19 05:34:25;;;;;;;7.38;3.70;;;;;;;;;;5042696;28;20059;-80
2022/11/19 05:36:51;;;;;;;5.93;3.33;;;;;;;;;;5051908;28;20041;-79
2022/11/19 05:39:17;;;;;;;8.55;3.88;;;;;;;;;;5053338;28;20040;-79
2022/11/19 05:41:43;;;;;;;7.85;4.13;;;;;;;;;;5037654;28;20087;-79
2022/11/19 05:44:09;;;;;;;7.43;3.63;;;;;;;;;;5053273;28;20041;-78
2022/11/19 05:46:35;;;;;;;6.20;3.53;;;;;;;;;;5052771;28;20076;-79
2022/11/19 05:49:01;;;;;;;7.78;4.07;;;;;;;;;;5035575;28;20044;-74
2022/11/19 05:51:27;;;;;;;6.72;3.70;;;;;;;;;;5051820;28;20047;-74
2022/11/19 05:53:53;;;;;;;7.30;4.00;;;;;;;;;;5053010;28;20037;-74
2022/11/19 05:56:19;;;;;;;7.80;3.97;;;;;;;;;;5051795;28;20045;-74
2022/11/19 05:58:45;;;;;;;5.50;2.95;;;;;;;;;;5048101;28;20040;-74
2022/11/19 06:01:12;;;;;;;6.10;2.65;;;;;;;;;;5024567;28;20122;-74
2022/11/19 06:03:39;;;;;;;4.68;2.08;;;;;;;;;;5051056;28;20053;-74
2022/11/19 06:06:05;;;;;;;6.28;3.88;;;;;;;;;;5051249;28;20072;-75
2022/11/19 06:08:31;;;;;;;6.60;3.58;;;;;;;;;;5051202;28;20040;-76
2022/11/19 06:10:57;;;;;;;7.18;4.10;;;;;;;;;;5034994;28;20060;-81
2022/11/19 06:13:24;;;;;;;7.53;3.97;;;;;;;;;;5035094;28;20512;-79
2022/11/19 06:15:50;;;;;;;5.07;2.55;;;;;;;;;;5051422;28;20477;-81
2022/11/19 06:18:16;;;;;;;7.47;3.88;;;;;;;;;;5051444;28;20044;-81
2022/11/19 06:20:42;;;;;;;8.23;4.40;;;;;;;;;;5034597;28;20106;-81
2022/11/19 06:23:08;;;;;;;9.98;3.85;;;;;;;;;;5051750;28;20041;-81
2022/11/19 06:25:34;;;;;;;8.18;4.10;;;;;;;;;;5051110;28;20053;-82
2022/11/19 06:28:00;;;;;;;7.95;4.45;;;;;;;;;;5051353;28;20037;-82
2022/11/19 06:30:26;;;;;;;7.80;4.28;;;;;;;;;;5052107;28;20401;-81
2022/11/19 06:32:52;;;;;;;9.45;4.40;;;;;;;;;;5053404;28;20397;-80
2022/11/19 06:35:19;;;;;;;8.88;4.75;;;;;;;;;;5052503;28;20041;-80
2022/11/19 06:37:45;;;;;;;7.07;3.97;;;;;;;;;;5050865;28;20044;-77
2022/11/19 06:40:11;;;;;;;10.02;4.70;;;;;;;;;;5050979;28;20045;-74
2022/11/19 06:42:37;;;;;;;8.27;4.32;;;;;;;;;;5052002;28;20149;-76
2022/11/19 06:45:08;;;;;;;10.30;4.70;;;;;;;;;;5052270;28;20051;-76
2022/11/19 06:47:34;;;;;;;10.13;4.13;;;;;;;;;;5052508;28;20087;-76
2022/11/19 06:50:01;;;;;;;8.93;4.55;;;;;;;;;;5036819;28;20051;-82
2022/11/19 06:52:27;;;;;;;9.40;4.65;;;;;;;;;;5052535;28;20048;-82
2022/11/19 06:54:53;;;;;;;6.13;2.55;;;;;;;;;;5050722;28;20096;-79
2022/11/19 06:57:19;;;;;;;11.75;5.13;;;;;;;;;;5051305;28;20033;-80
2022/11/19 06:59:45;;;;;;;7.80;4.20;;;;;;;;;;5034041;28;20044;-80
2022/11/19 07:02:11;;;;;;;10.38;5.35;;;;;;;;;;5050848;28;20045;-80
2022/11/19 07:04:38;;;;;;;8.85;4.78;;;;;;;;;;5065968;28;20048;-79
2022/11/19 07:07:04;;;;;;;8.90;4.47;;;;;;;;;;5054905;28;20501;-80
2022/11/19 07:09:30;;;;;;;10.02;5.20;;;;;;;;;;5072435;28;20389;-73
2022/11/19 07:11:56;;;;;;;7.25;4.43;;;;;;;;;;5053992;28;20036;-75
2022/11/19 07:14:23;;;;;;;9.68;4.85;;;;;;;;;;5070588;28;20119;-74
2022/11/19 07:16:49;;;;;;;10.55;5.05;;;;;;;;;;5071675;28;20504;-75
2022/11/19 07:19:15;;;;;;;12.63;5.65;;;;;;;;;;5057951;28;20366;-75
2022/11/19 07:21:41;;;;;;;8.05;4.22;;;;;;;;;;5074184;28;20131;-75
2022/11/19 07:24:08;;;;;;;10.73;5.85;;;;;;;;;;5057821;28;20056;-75
2022/11/19 07:26:35;;;;;;;10.65;6.10;;;;;;;;;;5061160;28;20080;-74
2022/11/19 07:29:01;;;;;;;10.80;5.35;;;;;;;;;;5069307;28;20036;-74
2022/11/19 07:31:28;;;;;;;10.77;5.90;;;;;;;;;;5062704;28;20043;-75
2022/11/19 07:33:54;;;;;;;11.23;5.70;;;;;;;;;;5047198;28;20469;-75
2022/11/19 07:36:20;;;;;;;12.10;6.40;;;;;;;;;;5054348;28;20041;-74
2022/11/19 07:38:46;;;;;;;11.15;5.63;;;;;;;;;;5055461;28;20393;-81
2022/11/19 07:43:57;;;;;;;9.57;4.57;;;;;;;;;;5054723;28;20049;-79
2022/11/19 07:46:23;;;;;;;10.00;4.95;;;;;;;;;;5055166;28;20098;-80
2022/11/19 07:48:56;;;;;;;5.85;3.47;;;;;;;;;;5055293;28;20033;-74
2022/11/19 07:51:23;;;;;;;11.60;5.60;;;;;;;;;;5042520;28;20036;-80
2022/11/19 07:53:49;;;;;;;7.72;2.70;;;;;;;;;;5076527;28;20044;-80
2022/11/19 07:56:15;;;;;;;10.00;5.75;;;;;;;;;;5046973;28;20041;-80
2022/11/19 07:58:42;;;;;;;9.52;5.22;;;;;;;;;;5030187;28;20052;-81
2022/11/19 08:01:12;;;;;;;10.88;5.65;;;;;;;;;;5074875;28;20087;-81
2022/11/19 08:03:41;;;;;;;9.57;5.20;;;;;;;;;;5073782;28;20048;-74
2022/11/19 08:06:07;;;;;;;9.80;5.78;;;;;;;;;;5057137;28;20428;-75
2022/11/19 08:08:33;;;;;;;8.93;5.32;;;;;;;;;;5070760;28;20394;-75
2022/11/19 08:11:04;;;;;;;10.85;6.55;;;;;;;;;;5062962;28;20041;-75
2022/11/19 08:13:30;;;;;;;8.85;5.70;;;;;;;;;;5075237;28;20040;-75
2022/11/19 08:16:00;;;;;;;9.90;6.20;;;;;;;;;;5107187;28;20040;-80
2022/11/19 08:18:28;;;;;;;8.50;4.47;;;;;;;;;;5073488;28;20404;-76
2022/11/19 08:20:54;;;;;;;8.77;5.65;;;;;;;;;;5036814;28;20135;-77
2022/11/19 08:23:21;;;;;;;9.68;6.43;;;;;;;;;;5066406;28;20040;-76
2022/11/19 08:25:47;;;;;;;8.60;6.05;;;;;;;;;;5073128;28;20128;-76
2022/11/19 08:28:14;;;;;;;9.68;5.38;;;;;;;;;;5069673;28;20036;-76
2022/11/19 08:30:40;;;;;;;10.10;6.68;;;;;;;;;;5070052;28;20576;-81
2022/11/19 08:33:07;;;;;;;9.00;6.07;;;;;;;;;;5071294;28;20037;-81
2022/11/19 08:35:33;;;;;;;10.65;6.88;;;;;;;;;;5053566;28;20393;-80
2022/11/19 08:37:59;;;;;;;9.30;6.60;;;;;;;;;;5053206;28;20048;-81
2022/11/19 08:40:26;;;;;;;9.32;6.47;;;;;;;;;;5053462;28;20076;-81
2022/11/19 08:43:01;;;;;;;8.52;5.55;;;;;;;;;;5053063;28;20490;-75
2022/11/19 08:45:30;;;;;;;9.20;6.10;;;;;;;;;;5053313;28;20040;-81
2022/11/19 08:47:57;;;;;;;9.23;5.80;;;;;;;;;;5053056;28;20051;-81
2022/11/19 08:50:23;;;;;;;8.32;5.88;;;;;;;;;;5053498;28;20400;-81
2022/11/19 08:52:54;;;;;;;9.80;6.50;;;;;;;;;;5053481;28;20198;-80
2022/11/19 08:55:20;;;;;;;9.05;6.22;;;;;;;;;;5052992;28;20128;-80
2022/11/19 08:57:46;;;;;;;9.45;6.57;;;;;;;;;;5053252;28;20080;-81
2022/11/19 09:00:12;;;;;;;9.15;6.43;;;;;;;;;;5052381;28;20052;-81
2022/11/19 09:02:38;;;;;;;9.52;6.50;;;;;;;;;;5036354;28;20045;-81
2022/11/19 09:05:05;;;;;;;8.48;6.40;;;;;;;;;;5053900;28;20041;-80
2022/11/19 09:07:31;;;;;;;8.43;6.28;;;;;;;;;;5031112;28;20052;-81
2022/11/19 09:09:57;;;;;;;8.15;5.55;;;;;;;;;;5044000;28;20123;-81
2022/11/19 09:12:23;;;;;;;10.02;6.32;;;;;;;;;;5052918;28;20048;-76
2022/11/19 09:14:52;;;;;;;8.27;5.70;;;;;;;;;;5036314;28;20563;-77
2022/11/19 09:17:18;;;;;;;7.95;6.00;;;;;;;;;;5085509;28;20049;-75
2022/11/19 09:19:44;;;;;;;8.68;6.25;;;;;;;;;;5052606;28;20048;-75
2022/11/19 09:22:10;;;;;;;7.93;5.82;;;;;;;;;;5053250;28;20083;-75
2022/11/19 09:24:36;;;;;;;7.65;5.95;;;;;;;;;;5052267;28;20049;-80
2022/11/19 09:27:02;;;;;;;8.98;5.75;;;;;;;;;;5053289;28;20076;-80
2022/11/19 09:29:28;;;;;;;8.25;5.43;;;;;;;;;;5053514;28;20040;-75
2022/11/19 09:31:54;;;;;;;7.40;5.78;;;;;;;;;;5035652;28;20048;-75
2022/11/19 09:34:21;;;;;;;7.78;6.18;;;;;;;;;;5053115;28;20037;-80
2022/11/19 09:36:47;;;;;;;8.13;5.50;;;;;;;;;;5036057;28;20509;-81
2022/11/19 09:39:13;;;;;;;7.55;5.57;;;;;;;;;;5053607;28;20486;-81
2022/11/19 09:41:48;;;;;;;7.68;5.57;;;;;;;;;;5051092;28;20040;-81
2022/11/19 09:44:14;;;;;;;7.20;5.47;;;;;;;;;;5052647;28;20498;-80
2022/11/19 09:46:49;;;;;;;7.65;4.78;;;;;;;;;;5052397;28;20582;-82
2022/11/19 09:49:18;;;;;;;8.77;5.43;;;;;;;;;;5053035;28;20371;-81
2022/11/19 09:51:48;;;;;;;8.95;5.60;;;;;;;;;;5052226;28;20508;-80
2022/11/19 09:54:16;;;;;;;7.75;5.15;;;;;;;;;;5051790;28;20041;-82
2022/11/19 09:56:44;;;;;;;8.20;5.57;;;;;;;;;;5052078;28;20048;-82
2022/11/19 09:59:20;;;;;;;6.80;4.78;;;;;;;;;;5051587;28;20041;-76
2022/11/19 10:01:46;;;;;;;;;;;;;;;;;;5051611;28;20045;-76
2022/11/19 10:04:12;;;;;;;6.35;4.32;;;;;;;;;;5051456;28;19921;-76
2022/11/19 10:06:48;;;;;;;7.55;5.22;;;;;;;;;;5052861;28;20063;-77
2022/11/19 10:09:17;;;;;;;6.45;4.38;;;;;;;;;;5051256;28;20043;-76
2022/11/19 10:11:51;;;;;;;6.90;5.10;;;;;;;;;;5051320;28;20068;-76
2022/11/19 10:14:36;;;;;;;7.60;5.10;;;;;;;;;;5051119;28;20045;-77
2022/11/19 10:17:05;;;;;;;7.07;4.70;;;;;;;;;;5051039;28;20044;-76
2022/11/19 10:19:40;;;;;;;6.85;5.15;;;;;;;;;;5037612;28;20045;-77
2022/11/19 10:22:14;;;;;;;8.13;5.38;;;;;;;;;;5034529;28;20051;-77
2022/11/19 10:24:42;;;;;;;6.43;4.93;;;;;;;;;;5035197;28;20544;-76
2022/11/19 10:27:22;;;;;;;7.00;5.07;;;;;;;;;;5051201;28;20041;-76
2022/11/19 10:29:51;;;;;;;6.65;4.50;;;;;;;;;;5051324;28;20048;-76
2022/11/19 10:32:20;;;;;;;6.35;4.45;;;;;;;;;;5051170;28;20460;-81
2022/11/19 10:34:48;;;;;;;5.88;4.22;;;;;;;;;;5034368;28;20052;-77
2022/11/19 10:37:18;;;;;;;7.13;4.78;;;;;;;;;;5050843;28;20094;-78
2022/11/19 10:39:49;;;;;;;6.32;4.70;;;;;;;;;;5084594;28;20091;-77
2022/11/19 10:42:25;;;;;;;6.32;4.45;;;;;;;;;;5069380;28;20094;-77
2022/11/19 10:44:53;;;;;;;7.78;4.70;;;;;;;;;;5072533;28;20186;-76
2022/11/19 10:47:22;;;;;;;6.63;4.93;;;;;;;;;;5070546;28;20049;-76
2022/11/19 10:49:52;;;;;;;6.32;4.63;;;;;;;;;;5071056;28;20060;-78
2022/11/19 10:52:39;;;;;;;6.22;4.25;;;;;;;;;;5070393;28;20040;-76
2022/11/19 10:55:25;;;;;;;6.25;4.30;;;;;;;;;;5070796;28;20032;-76
2022/11/19 10:57:54;;;;;;;5.63;3.78;;;;;;;;;;5070742;28;20055;-78
2022/11/19 11:00:20;;;;;;;5.40;3.72;;;;;;;;;;5062464;28;20048;-83
2022/11/19 11:02:49;;;;;;;8.20;4.97;;;;;;;;;;5065071;28;20131;-82
2022/11/19 11:05:16;;;;;;;5.63;3.53;;;;;;;;;;5064072;28;20033;-82
2022/11/19 11:07:45;;;;;;;6.07;4.30;;;;;;;;;;5063995;28;20037;-81
2022/11/19 11:10:28;;;;;;;5.55;4.18;;;;;;;;;;5072005;28;20390;-83
2022/11/19 11:15:48;;;;;;;6.13;4.38;;;;;;;;;;5071107;28;20458;-82
2022/11/19 11:18:14;;;;;;;7.18;4.80;;;;;;;;;;5056311;28;20045;-81
2022/11/19 11:20:51;;;;;;;6.75;4.45;;;;;;;;;;5071005;28;20574;-76
2022/11/19 11:23:17;;;;;;;6.10;3.95;;;;;;;;;;5056199;28;20041;-82
2022/11/19 11:26:10;;;;;;;7.05;4.38;;;;;;;;;;5054151;28;20048;-83
2022/11/19 11:28:53;;;;;;;5.85;2.75;;;;;;;;;;5050397;28;20041;-83
2022/11/19 11:31:27;;;;;;;7.47;4.30;;;;;;;;;;5042056;28;20045;-82
2022/11/19 11:33:55;;;;;;;6.65;4.20;;;;;;;;;;5057176;28;20045;-83
2022/11/19 11:36:24;;;;;;;6.50;4.32;;;;;;;;;;5051323;28;20056;-82
2022/11/19 11:38:51;;;;;;;3.97;2.47;;;;;;;;;;5067490;28;20076;-82
2022/11/19 11:41:21;;;;;;;5.00;2.25;;;;;;;;;;5060210;28;20029;-83
2022/11/19 11:44:00;;;;;;;7.72;3.45;;;;;;;;;;5066455;28;20088;-82
2022/11/19 11:46:37;;;;;;;6.18;3.22;;;;;;;;;;5072094;28;20044;-83
2022/11/19 11:49:06;;;;;;;6.20;4.30;;;;;;;;;;5071290;28;20036;-84
2022/11/19 11:51:34;;;;;;;7.15;4.20;;;;;;;;;;5065283;28;20036;-82
2022/11/19 11:54:18;;;;;;;7.32;3.35;;;;;;;;;;5036333;28;20460;-82
2022/11/19 11:56:45;;;;;;;6.32;3.85;;;;;;;;;;5058788;28;20044;-82
2022/11/19 11:59:15;;;;;;;5.90;3.50;;;;;;;;;;5037414;28;20033;-82
2022/11/19 12:01:41;;;;;;;6.53;3.65;;;;;;;;;;5047623;28;20485;-82
2022/11/19 12:04:12;;;;;;;7.35;3.83;;;;;;;;;;5060496;28;20091;-82
2022/11/19 12:06:42;;;;;;;6.72;3.58;;;;;;;;;;5059485;28;20532;-82
2022/11/19 12:09:13;;;;;;;8.68;4.43;;;;;;;;;;5063350;28;20178;-82
2022/11/19 12:11:56;;;;;;;7.20;3.28;;;;;;;;;;5057808;28;20037;-80
2022/11/19 12:14:32;;;;;;;6.72;3.28;;;;;;;;;;5077815;28;20032;-81
2022/11/19 12:16:58;;;;;;;7.68;4.30;;;;;;;;;;5074417;28;20393;-80
2022/11/19 12:19:43;;;;;;;6.75;4.18;;;;;;;;;;5045215;28;20048;-82
2022/11/19 12:22:13;;;;;;;7.10;4.35;;;;;;;;;;5057827;28;20072;-82
2022/11/19 12:24:42;;;;;;;8.25;4.63;;;;;;;;;;5055543;28;20119;-81
2022/11/19 12:27:11;;;;;;;8.65;4.63;;;;;;;;;;5054243;28;20077;-81
2022/11/19 12:30:06;;;;;;;6.57;3.92;;;;;;;;;;5059346;28;20328;-80
2022/11/19 12:32:51;;;;;;;9.00;4.45;;;;;;;;;;5052535;28;20087;-80
2022/11/19 12:35:26;;;;;;;7.38;4.25;;;;;;;;;;5039806;28;20454;-81
2022/11/19 12:37:55;;;;;;;7.50;4.03;;;;;;;;;;5053850;28;20084;-81
2022/11/19 12:40:39;;;;;;;8.20;4.32;;;;;;;;;;5036709;28;20049;-80
2022/11/19 12:43:11;;;;;;;7.03;4.30;;;;;;;;;;5053221;28;20049;-80
2022/11/19 12:45:53;;;;;;;7.82;3.70;;;;;;;;;;5046156;28;20045;-80
2022/11/19 12:48:38;;;;;;;6.25;3.92;;;;;;;;;;5048921;28;20486;-80
2022/11/19 12:51:19;;;;;;;7.47;4.45;;;;;;;;;;5053496;28;20048;-80
2022/11/19 12:53:54;;;;;;;5.88;2.97;;;;;;;;;;5053181;28;20144;-80
2022/11/19 12:56:20;;;;;;;7.80;3.45;;;;;;;;;;5036812;28;20045;-80
2022/11/19 12:58:58;;;;;;;8.43;4.13;;;;;;;;;;5039367;28;20052;-80
2022/11/19 13:01:26;;;;;;;8.77;4.90;;;;;;;;;;5053026;28;20048;-85
2022/11/19 13:04:00;;;;;;;9.15;3.40;;;;;;;;;;5053259;28;20040;-75
2022/11/19 13:06:37;;;;;;;6.20;3.22;;;;;;;;;;5053969;28;20506;-82
2022/11/19 13:09:05;;;;;;;6.72;4.18;;;;;;;;;;5053066;28;20111;-82
2022/11/19 13:11:36;;;;;;;7.40;4.10;;;;;;;;;;5053756;28;20040;-79
2022/11/19 13:14:04;;;;;;;7.97;4.45;;;;;;;;;;5038624;28;20076;-83
2022/11/19 13:16:33;;;;;;;7.43;4.00;;;;;;;;;;5052630;28;20060;-81
2022/11/19 13:19:18;;;;;;;5.88;2.95;;;;;;;;;;5054146;28;20493;-80
2022/11/19 13:21:55;;;;;;;7.88;4.13;;;;;;;;;;5053544;28;20477;-81
2022/11/19 13:24:27;;;;;;;6.07;3.65;;;;;;;;;;5049643;28;20398;-82
2022/11/19 13:26:55;;;;;;;6.90;3.83;;;;;;;;;;5043935;28;20445;-78
2022/11/19 13:29:21;;;;;;;7.18;3.78;;;;;;;;;;5063092;28;20059;-81
2022/11/19 13:32:11;;;;;;;5.78;2.70;;;;;;;;;;5039017;28;20083;-79
2022/11/19 13:34:44;;;;;;;5.72;3.22;;;;;;;;;;5063602;28;20413;-80
2022/11/19 13:37:27;;;;;;;5.80;2.92;;;;;;;;;;5061741;28;20055;-81
2022/11/19 13:39:57;;;;;;;6.72;3.83;;;;;;;;;;5073909;28;20039;-81
2022/11/19 13:45:15;;;;;;;7.00;3.60;;;;;;;;;;5058335;28;20040;-78
2022/11/19 13:47:45;;;;;;;7.38;3.90;;;;;;;;;;5074131;28;20045;-77
2022/11/19 13:50:22;;;;;;;7.57;3.97;;;;;;;;;;5073541;28;20062;-74
2022/11/19 13:53:01;;;;;;;6.68;4.10;;;;;;;;;;5061671;28;20132;-76
2022/11/19 13:55:32;;;;;;;6.50;3.20;;;;;;;;;;5057446;28;20047;-79
2022/11/19 13:58:07;;;;;;;7.65;3.97;;;;;;;;;;5056320;28;20041;-72
2022/11/19 14:00:33;;;;;;;7.07;4.07;;;;;;;;;;5073040;28;20072;-73
2022/11/19 14:03:18;;;;;;;6.88;4.00;;;;;;;;;;5071774;28;20048;-73
2022/11/19 14:05:50;;;;;;;6.97;4.03;;;;;;;;;;5071214;28;20043;-73
2022/11/19 14:08:16;;;;;;;7.72;4.03;;;;;;;;;;5071508;28;20036;-73
2022/11/19 14:10:59;;;;;;;6.93;4.10;;;;;;;;;;5066412;28;20101;-72
2022/11/19 14:13:51;;;;;;;6.15;3.47;;;;;;;;;;5065357;28;20071;-71
2022/11/19 14:27:23;;;;;;;6.53;3.67;;;;;;;;;;5057066;28;20056;-81
2022/11/19 14:29:49;;;;;;;6.43;3.67;;;;;;;;;;5062673;28;20051;-79
2022/11/19 14:32:15;;;;;;;7.32;3.80;;;;;;;;;;5071291;28;20045;-80
2022/11/19 14:34:43;;;;;;;6.72;3.38;;;;;;;;;;5055868;28;20052;-78
2022/11/19 14:37:18;;;;;;;7.35;3.15;;;;;;;;;;5051427;28;20036;-74
2022/11/19 14:39:46;;;;;;;5.80;3.20;;;;;;;;;;5050977;28;20049;-74
2022/11/19 14:42:16;;;;;;;6.15;3.47;;;;;;;;;;5051141;28;20037;-75
2022/11/19 14:45:02;;;;;;;6.10;3.38;;;;;;;;;;5050666;28;20032;-77
2022/11/19 14:47:30;;;;;;;5.97;3.40;;;;;;;;;;5050518;28;20041;-76
2022/11/19 14:49:57;;;;;;;5.68;3.50;;;;;;;;;;5050715;28;20044;-75
2022/11/19 14:52:34;;;;;;;7.15;3.47;;;;;;;;;;5051087;28;20091;-74
2022/11/19 14:55:16;;;;;;;7.50;3.67;;;;;;;;;;5034143;28;20094;-80
2022/11/19 14:57:43;;;;;;;9.05;4.28;;;;;;;;;;5034018;28;20040;-74
2022/11/19 15:00:16;;;;;;;7.07;3.78;;;;;;;;;;5051060;28;20433;-75
2022/11/19 15:02:44;;;;;;;8.90;4.03;;;;;;;;;;5050372;28;20052;-74
2022/11/19 15:05:15;;;;;;;6.95;3.70;;;;;;;;;;5050553;28;20106;-71
2022/11/19 15:07:45;;;;;;;6.55;3.40;;;;;;;;;;5050536;28;20037;-80
2022/11/19 15:10:16;;;;;;;8.23;3.55;;;;;;;;;;5051456;28;20052;-79
2022/11/19 15:12:42;;;;;;;6.47;3.50;;;;;;;;;;5051770;28;20588;-78
2022/11/19 15:15:17;;;;;;;6.65;3.65;;;;;;;;;;5050804;28;20141;-78
2022/11/19 15:17:45;;;;;;;6.68;3.38;;;;;;;;;;5050782;28;20397;-78
2022/11/19 15:20:26;;;;;;;7.00;3.92;;;;;;;;;;5050959;28;20099;-78
2022/11/19 15:23:00;;;;;;;8.07;3.58;;;;;;;;;;5033751;28;20047;-78
2022/11/19 15:25:29;;;;;;;8.02;3.38;;;;;;;;;;5033971;28;20124;-78